sensor_id;sensor_type;location;lat;lon;timestamp;pressure;altitude;pressure_sealevel;temperature
41593;BMP180;28026;48.562;14.440;2022-08-01T00:02:09;93862.00;;;27.60
41593;BMP180;28026;48.562;14.440;2022-08-01T00:04:40;93861.00;;;27.60
41593;BMP180;28026;48.562;14.440;2022-08-01T00:07:11;93848.00;;;27.60
41593;BMP180;28026;48.562;14.440;2022-08-01T00:09:42;93843.00;;;27.60
41593;BMP180;28026;48.562;14.440;2022-08-01T00:12:13;93849.00;;;27.50
41593;BMP180;28026;48.562;14.440;2022-08-01T00:14:44;93829.00;;;27.50
41593;BMP180;28026;48.562;14.440;2022-08-01T00:17:15;93834.00;;;27.40
41593;BMP180;28026;48.562;14.440;2022-08-01T00:19:46;93830.00;;;27.40
41593;BMP180;28026;48.562;14.440;2022-08-01T00:22:17;93825.00;;;27.30
41593;BMP180;28026;48.562;14.440;2022-08-01T00:24:48;93823.00;;;27.20
41593;BMP180;28026;48.562;14.440;2022-08-01T00:27:19;93816.00;;;27.10
41593;BMP180;28026;48.562;14.440;2022-08-01T00:29:50;93820.00;;;27.10
41593;BMP180;28026;48.562;14.440;2022-08-01T00:32:21;93808.00;;;27.10
41593;BMP180;28026;48.562;14.440;2022-08-01T00:34:52;93819.00;;;27.10
41593;BMP180;28026;48.562;14.440;2022-08-01T00:37:23;93807.00;;;27.00
41593;BMP180;28026;48.562;14.440;2022-08-01T00:39:54;93810.00;;;27.00
41593;BMP180;28026;48.562;14.440;2022-08-01T00:42:25;93816.00;;;27.00
41593;BMP180;28026;48.562;14.440;2022-08-01T00:44:56;93816.00;;;27.10
41593;BMP180;28026;48.562;14.440;2022-08-01T00:47:27;93821.00;;;27.10
41593;BMP180;28026;48.562;14.440;2022-08-01T00:49:58;93810.00;;;27.10
41593;BMP180;28026;48.562;14.440;2022-08-01T00:52:29;93819.00;;;27.10
41593;BMP180;28026;48.562;14.440;2022-08-01T00:55:01;93810.00;;;27.10
41593;BMP180;28026;48.562;14.440;2022-08-01T00:57:33;93814.00;;;27.20
41593;BMP180;28026;48.562;14.440;2022-08-01T01:00:06;93813.00;;;27.20
41593;BMP180;28026;48.562;14.440;2022-08-01T01:02:38;93801.00;;;27.20
41593;BMP180;28026;48.562;14.440;2022-08-01T01:05:09;93805.00;;;27.10
41593;BMP180;28026;48.562;14.440;2022-08-01T01:08:02;93793.00;;;27.20
41593;BMP180;28026;48.562;14.440;2022-08-01T01:11:13;93805.00;;;27.20
41593;BMP180;28026;48.562;14.440;2022-08-01T01:14:09;93800.00;;;27.20
41593;BMP180;28026;48.562;14.440;2022-08-01T01:16:47;93793.00;;;27.20
41593;BMP180;28026;48.562;14.440;2022-08-01T01:19:24;93799.00;;;27.20
41593;BMP180;28026;48.562;14.440;2022-08-01T01:31:44;93795.00;;;27.10
41593;BMP180;28026;48.562;14.440;2022-08-01T01:34:27;93791.00;;;27.10
41593;BMP180;28026;48.562;14.440;2022-08-01T01:37:06;93782.00;;;27.10
41593;BMP180;28026;48.562;14.440;2022-08-01T01:39:43;93784.00;;;27.10
41593;BMP180;28026;48.562;14.440;2022-08-01T01:42:18;93791.00;;;27.10
41593;BMP180;28026;48.562;14.440;2022-08-01T01:44:52;93787.00;;;27.10
41593;BMP180;28026;48.562;14.440;2022-08-01T01:47:27;93778.00;;;27.10
41593;BMP180;28026;48.562;14.440;2022-08-01T01:50:02;93779.00;;;27.10
41593;BMP180;28026;48.562;14.440;2022-08-01T01:52:36;93781.00;;;27.00
41593;BMP180;28026;48.562;14.440;2022-08-01T01:55:11;93778.00;;;27.00
41593;BMP180;28026;48.562;14.440;2022-08-01T01:57:45;93771.00;;;27.00
41593;BMP180;28026;48.562;14.440;2022-08-01T02:00:18;93770.00;;;27.00
41593;BMP180;28026;48.562;14.440;2022-08-01T02:02:50;93766.00;;;26.90
41593;BMP180;28026;48.562;14.440;2022-08-01T02:05:25;93769.00;;;27.00
41593;BMP180;28026;48.562;14.440;2022-08-01T02:07:58;93766.00;;;27.00
41593;BMP180;28026;48.562;14.440;2022-08-01T02:10:32;93764.00;;;27.00
41593;BMP180;28026;48.562;14.440;2022-08-01T02:13:06;93767.00;;;26.90
41593;BMP180;28026;48.562;14.440;2022-08-01T02:15:38;93770.00;;;26.80
41593;BMP180;28026;48.562;14.440;2022-08-01T02:18:10;93768.00;;;26.70
41593;BMP180;28026;48.562;14.440;2022-08-01T02:20:43;93765.00;;;26.70
41593;BMP180;28026;48.562;14.440;2022-08-01T02:23:16;93772.00;;;26.60
41593;BMP180;28026;48.562;14.440;2022-08-01T02:25:53;93757.00;;;26.60
41593;BMP180;28026;48.562;14.440;2022-08-01T02:28:35;93752.00;;;26.50
41593;BMP180;28026;48.562;14.440;2022-08-01T02:31:16;93765.00;;;26.50
41593;BMP180;28026;48.562;14.440;2022-08-01T02:34:13;93757.00;;;26.40
41593;BMP180;28026;48.562;14.440;2022-08-01T02:36:49;93755.00;;;26.40
41593;BMP180;28026;48.562;14.440;2022-08-01T02:39:23;93745.00;;;26.40
41593;BMP180;28026;48.562;14.440;2022-08-01T02:42:03;93742.00;;;26.40
41593;BMP180;28026;48.562;14.440;2022-08-01T02:44:41;93745.00;;;26.40
41593;BMP180;28026;48.562;14.440;2022-08-01T02:47:20;93742.00;;;26.40
41593;BMP180;28026;48.562;14.440;2022-08-01T02:49:55;93744.00;;;26.40
41593;BMP180;28026;48.562;14.440;2022-08-01T02:52:29;93734.00;;;26.40
41593;BMP180;28026;48.562;14.440;2022-08-01T02:55:04;93740.00;;;26.40
41593;BMP180;28026;48.562;14.440;2022-08-01T02:57:38;93739.00;;;26.40
41593;BMP180;28026;48.562;14.440;2022-08-01T03:00:16;93731.00;;;26.30
41593;BMP180;28026;48.562;14.440;2022-08-01T03:02:51;93727.00;;;26.30
41593;BMP180;28026;48.562;14.440;2022-08-01T03:05:26;93727.00;;;26.30
41593;BMP180;28026;48.562;14.440;2022-08-01T03:07:59;93730.00;;;26.30
41593;BMP180;28026;48.562;14.440;2022-08-01T03:10:33;93734.00;;;26.30
41593;BMP180;28026;48.562;14.440;2022-08-01T03:13:08;93738.00;;;26.30
41593;BMP180;28026;48.562;14.440;2022-08-01T03:15:43;93736.00;;;26.20
41593;BMP180;28026;48.562;14.440;2022-08-01T03:18:17;93736.00;;;26.20
41593;BMP180;28026;48.562;14.440;2022-08-01T03:20:50;93730.00;;;26.20
41593;BMP180;28026;48.562;14.440;2022-08-01T03:23:24;93739.00;;;26.20
41593;BMP180;28026;48.562;14.440;2022-08-01T03:25:58;93735.00;;;26.30
41593;BMP180;28026;48.562;14.440;2022-08-01T03:28:32;93743.00;;;26.30
41593;BMP180;28026;48.562;14.440;2022-08-01T03:31:05;93730.00;;;26.30
41593;BMP180;28026;48.562;14.440;2022-08-01T03:33:36;93728.00;;;26.30
41593;BMP180;28026;48.562;14.440;2022-08-01T03:36:09;93732.00;;;26.30
41593;BMP180;28026;48.562;14.440;2022-08-01T03:38:44;93738.00;;;26.30
41593;BMP180;28026;48.562;14.440;2022-08-01T03:41:21;93731.00;;;26.30
41593;BMP180;28026;48.562;14.440;2022-08-01T03:44:05;93743.00;;;26.30
41593;BMP180;28026;48.562;14.440;2022-08-01T03:46:47;93736.00;;;26.30
41593;BMP180;28026;48.562;14.440;2022-08-01T03:49:28;93739.00;;;26.30
41593;BMP180;28026;48.562;14.440;2022-08-01T03:52:04;93735.00;;;26.30
41593;BMP180;28026;48.562;14.440;2022-08-01T03:54:43;93739.00;;;26.30
41593;BMP180;28026;48.562;14.440;2022-08-01T03:57:18;93740.00;;;26.30
41593;BMP180;28026;48.562;14.440;2022-08-01T03:59:51;93743.00;;;26.30
41593;BMP180;28026;48.562;14.440;2022-08-01T04:02:23;93740.00;;;26.30
41593;BMP180;28026;48.562;14.440;2022-08-01T04:04:58;93744.00;;;26.30
41593;BMP180;28026;48.562;14.440;2022-08-01T04:07:32;93746.00;;;26.30
41593;BMP180;28026;48.562;14.440;2022-08-01T04:10:06;93737.00;;;26.30
41593;BMP180;28026;48.562;14.440;2022-08-01T04:12:38;93744.00;;;26.30
41593;BMP180;28026;48.562;14.440;2022-08-01T04:15:09;93737.00;;;26.30
41593;BMP180;28026;48.562;14.440;2022-08-01T04:17:40;93734.00;;;26.20
41593;BMP180;28026;48.562;14.440;2022-08-01T04:20:12;93738.00;;;26.20
41593;BMP180;28026;48.562;14.440;2022-08-01T04:22:43;93744.00;;;26.30
41593;BMP180;28026;48.562;14.440;2022-08-01T04:25:33;93734.00;;;26.30
41593;BMP180;28026;48.562;14.440;2022-08-01T04:28:10;93744.00;;;26.20
41593;BMP180;28026;48.562;14.440;2022-08-01T04:30:50;93745.00;;;26.30
41593;BMP180;28026;48.562;14.440;2022-08-01T04:33:28;93746.00;;;26.30
41593;BMP180;28026;48.562;14.440;2022-08-01T04:36:03;93749.00;;;26.30
41593;BMP180;28026;48.562;14.440;2022-08-01T04:38:38;93742.00;;;26.30
41593;BMP180;28026;48.562;14.440;2022-08-01T04:41:14;93750.00;;;26.30
41593;BMP180;28026;48.562;14.440;2022-08-01T04:43:46;93743.00;;;26.30
41593;BMP180;28026;48.562;14.440;2022-08-01T04:46:18;93740.00;;;26.40
41593;BMP180;28026;48.562;14.440;2022-08-01T04:48:50;93749.00;;;26.40
41593;BMP180;28026;48.562;14.440;2022-08-01T04:51:22;93754.00;;;26.50
41593;BMP180;28026;48.562;14.440;2022-08-01T04:53:53;93750.00;;;26.50
41593;BMP180;28026;48.562;14.440;2022-08-01T04:56:24;93750.00;;;26.50
41593;BMP180;28026;48.562;14.440;2022-08-01T04:58:55;93753.00;;;26.50
41593;BMP180;28026;48.562;14.440;2022-08-01T05:01:50;93755.00;;;26.50
41593;BMP180;28026;48.562;14.440;2022-08-01T05:04:21;93756.00;;;26.50
41593;BMP180;28026;48.562;14.440;2022-08-01T05:06:52;93758.00;;;26.60
41593;BMP180;28026;48.562;14.440;2022-08-01T05:09:23;93762.00;;;26.60
41593;BMP180;28026;48.562;14.440;2022-08-01T05:11:54;93750.00;;;26.60
41593;BMP180;28026;48.562;14.440;2022-08-01T05:14:26;93761.00;;;26.70
41593;BMP180;28026;48.562;14.440;2022-08-01T05:17:00;93756.00;;;26.70
41593;BMP180;28026;48.562;14.440;2022-08-01T05:19:37;93757.00;;;26.70
41593;BMP180;28026;48.562;14.440;2022-08-01T05:22:09;93757.00;;;26.70
41593;BMP180;28026;48.562;14.440;2022-08-01T05:24:40;93754.00;;;26.80
41593;BMP180;28026;48.562;14.440;2022-08-01T05:27:14;93754.00;;;26.70
41593;BMP180;28026;48.562;14.440;2022-08-01T05:29:45;93746.00;;;26.80
41593;BMP180;28026;48.562;14.440;2022-08-01T05:32:16;93754.00;;;26.80
41593;BMP180;28026;48.562;14.440;2022-08-01T05:34:47;93756.00;;;26.80
41593;BMP180;28026;48.562;14.440;2022-08-01T05:37:18;93759.00;;;26.80
41593;BMP180;28026;48.562;14.440;2022-08-01T05:39:49;93762.00;;;26.80
41593;BMP180;28026;48.562;14.440;2022-08-01T05:42:20;93759.00;;;26.80
41593;BMP180;28026;48.562;14.440;2022-08-01T05:44:51;93756.00;;;26.80
41593;BMP180;28026;48.562;14.440;2022-08-01T05:47:22;93754.00;;;26.80
41593;BMP180;28026;48.562;14.440;2022-08-01T05:49:54;93752.00;;;26.80
41593;BMP180;28026;48.562;14.440;2022-08-01T05:52:25;93756.00;;;26.80
41593;BMP180;28026;48.562;14.440;2022-08-01T05:54:56;93758.00;;;26.90
41593;BMP180;28026;48.562;14.440;2022-08-01T05:57:27;93758.00;;;26.90
41593;BMP180;28026;48.562;14.440;2022-08-01T05:59:58;93757.00;;;27.00
41593;BMP180;28026;48.562;14.440;2022-08-01T06:02:29;93768.00;;;27.10
41593;BMP180;28026;48.562;14.440;2022-08-01T06:04:59;93763.00;;;27.10
41593;BMP180;28026;48.562;14.440;2022-08-01T06:07:30;93776.00;;;27.20
41593;BMP180;28026;48.562;14.440;2022-08-01T06:10:02;93773.00;;;27.30
41593;BMP180;28026;48.562;14.440;2022-08-01T06:12:34;93777.00;;;27.40
41593;BMP180;28026;48.562;14.440;2022-08-01T06:15:06;93783.00;;;27.40
41593;BMP180;28026;48.562;14.440;2022-08-01T06:17:38;93794.00;;;27.60
41593;BMP180;28026;48.562;14.440;2022-08-01T06:20:10;93796.00;;;27.90
41593;BMP180;28026;48.562;14.440;2022-08-01T06:22:41;93791.00;;;28.10
41593;BMP180;28026;48.562;14.440;2022-08-01T06:25:12;93806.00;;;28.10
41593;BMP180;28026;48.562;14.440;2022-08-01T06:27:44;93811.00;;;28.10
41593;BMP180;28026;48.562;14.440;2022-08-01T06:30:15;93809.00;;;28.10
41593;BMP180;28026;48.562;14.440;2022-08-01T06:32:46;93806.00;;;27.90
41593;BMP180;28026;48.562;14.440;2022-08-01T06:35:18;93802.00;;;27.90
41593;BMP180;28026;48.562;14.440;2022-08-01T06:37:49;93807.00;;;27.90
41593;BMP180;28026;48.562;14.440;2022-08-01T06:40:20;93813.00;;;27.90
41593;BMP180;28026;48.562;14.440;2022-08-01T06:42:51;93800.00;;;27.90
41593;BMP180;28026;48.562;14.440;2022-08-01T06:45:22;93814.00;;;27.90
41593;BMP180;28026;48.562;14.440;2022-08-01T06:47:53;93814.00;;;28.10
41593;BMP180;28026;48.562;14.440;2022-08-01T06:50:24;93819.00;;;28.20
41593;BMP180;28026;48.562;14.440;2022-08-01T06:52:55;93798.00;;;28.40
41593;BMP180;28026;48.562;14.440;2022-08-01T06:55:26;93799.00;;;28.50
41593;BMP180;28026;48.562;14.440;2022-08-01T06:57:57;93810.00;;;28.60
41593;BMP180;28026;48.562;14.440;2022-08-01T07:00:28;93814.00;;;28.60
41593;BMP180;28026;48.562;14.440;2022-08-01T07:02:59;93811.00;;;28.70
41593;BMP180;28026;48.562;14.440;2022-08-01T07:05:30;93811.00;;;28.90
41593;BMP180;28026;48.562;14.440;2022-08-01T07:08:01;93821.00;;;29.10
41593;BMP180;28026;48.562;14.440;2022-08-01T07:10:32;93812.00;;;29.30
41593;BMP180;28026;48.562;14.440;2022-08-01T07:13:03;93816.00;;;29.50
41593;BMP180;28026;48.562;14.440;2022-08-01T07:15:34;93819.00;;;29.60
41593;BMP180;28026;48.562;14.440;2022-08-01T07:18:05;93819.00;;;29.70
41593;BMP180;28026;48.562;14.440;2022-08-01T07:20:37;93823.00;;;29.80
41593;BMP180;28026;48.562;14.440;2022-08-01T07:23:08;93812.00;;;29.90
41593;BMP180;28026;48.562;14.440;2022-08-01T07:25:39;93804.00;;;30.00
41593;BMP180;28026;48.562;14.440;2022-08-01T07:28:11;93814.00;;;30.20
41593;BMP180;28026;48.562;14.440;2022-08-01T07:30:41;93802.00;;;30.30
41593;BMP180;28026;48.562;14.440;2022-08-01T07:33:14;93813.00;;;30.40
41593;BMP180;28026;48.562;14.440;2022-08-01T07:35:45;93809.00;;;30.60
41593;BMP180;28026;48.562;14.440;2022-08-01T07:38:16;93810.00;;;30.90
41593;BMP180;28026;48.562;14.440;2022-08-01T07:40:47;93809.00;;;31.10
41593;BMP180;28026;48.562;14.440;2022-08-01T07:43:18;93811.00;;;31.30
41593;BMP180;28026;48.562;14.440;2022-08-01T07:45:49;93816.00;;;31.40
41593;BMP180;28026;48.562;14.440;2022-08-01T07:48:20;93810.00;;;31.40
41593;BMP180;28026;48.562;14.440;2022-08-01T07:50:54;93814.00;;;31.50
41593;BMP180;28026;48.562;14.440;2022-08-01T07:53:26;93815.00;;;31.60
41593;BMP180;28026;48.562;14.440;2022-08-01T07:55:57;93816.00;;;31.80
41593;BMP180;28026;48.562;14.440;2022-08-01T07:58:29;93816.00;;;31.90
41593;BMP180;28026;48.562;14.440;2022-08-01T08:01:00;93824.00;;;32.20
41593;BMP180;28026;48.562;14.440;2022-08-01T08:03:31;93819.00;;;32.30
41593;BMP180;28026;48.562;14.440;2022-08-01T08:06:01;93813.00;;;32.40
41593;BMP180;28026;48.562;14.440;2022-08-01T08:08:33;93813.00;;;32.60
41593;BMP180;28026;48.562;14.440;2022-08-01T08:11:05;93824.00;;;32.60
41593;BMP180;28026;48.562;14.440;2022-08-01T08:13:36;93811.00;;;32.80
41593;BMP180;28026;48.562;14.440;2022-08-01T08:16:07;93824.00;;;32.90
41593;BMP180;28026;48.562;14.440;2022-08-01T08:18:38;93815.00;;;32.80
41593;BMP180;28026;48.562;14.440;2022-08-01T08:21:08;93830.00;;;32.90
41593;BMP180;28026;48.562;14.440;2022-08-01T08:23:39;93829.00;;;33.00
41593;BMP180;28026;48.562;14.440;2022-08-01T08:26:29;93823.00;;;33.20
41593;BMP180;28026;48.562;14.440;2022-08-01T08:29:00;93826.00;;;33.20
41593;BMP180;28026;48.562;14.440;2022-08-01T08:31:31;93839.00;;;33.30
41593;BMP180;28026;48.562;14.440;2022-08-01T08:34:02;93836.00;;;33.20
41593;BMP180;28026;48.562;14.440;2022-08-01T08:36:33;93836.00;;;33.00
41593;BMP180;28026;48.562;14.440;2022-08-01T08:39:05;93840.00;;;33.00
41593;BMP180;28026;48.562;14.440;2022-08-01T08:41:37;93850.00;;;32.90
41593;BMP180;28026;48.562;14.440;2022-08-01T08:44:09;93844.00;;;32.80
41593;BMP180;28026;48.562;14.440;2022-08-01T08:46:47;93846.00;;;32.60
41593;BMP180;28026;48.562;14.440;2022-08-01T08:49:28;93859.00;;;32.50
41593;BMP180;28026;48.562;14.440;2022-08-01T08:52:01;93857.00;;;32.50
41593;BMP180;28026;48.562;14.440;2022-08-01T08:54:37;93860.00;;;32.40
41593;BMP180;28026;48.562;14.440;2022-08-01T08:57:10;93848.00;;;32.40
41593;BMP180;28026;48.562;14.440;2022-08-01T08:59:44;93845.00;;;32.30
41593;BMP180;28026;48.562;14.440;2022-08-01T09:02:16;93840.00;;;32.20
41593;BMP180;28026;48.562;14.440;2022-08-01T09:04:49;93847.00;;;32.20
41593;BMP180;28026;48.562;14.440;2022-08-01T09:07:20;93839.00;;;32.20
41593;BMP180;28026;48.562;14.440;2022-08-01T09:09:53;93845.00;;;32.10
41593;BMP180;28026;48.562;14.440;2022-08-01T09:12:24;93840.00;;;32.10
41593;BMP180;28026;48.562;14.440;2022-08-01T09:14:54;93842.00;;;31.80
41593;BMP180;28026;48.562;14.440;2022-08-01T09:17:25;93844.00;;;31.60
41593;BMP180;28026;48.562;14.440;2022-08-01T09:19:56;93839.00;;;31.40
41593;BMP180;28026;48.562;14.440;2022-08-01T09:22:33;93839.00;;;31.40
41593;BMP180;28026;48.562;14.440;2022-08-01T09:25:10;93843.00;;;31.50
41593;BMP180;28026;48.562;14.440;2022-08-01T09:27:41;93839.00;;;31.50
41593;BMP180;28026;48.562;14.440;2022-08-01T09:30:14;93836.00;;;31.70
41593;BMP180;28026;48.562;14.440;2022-08-01T09:33:02;93842.00;;;32.10
41593;BMP180;28026;48.562;14.440;2022-08-01T09:35:35;93829.00;;;32.30
41593;BMP180;28026;48.562;14.440;2022-08-01T09:38:17;93843.00;;;32.40
41593;BMP180;28026;48.562;14.440;2022-08-01T09:40:53;93840.00;;;32.30
41593;BMP180;28026;48.562;14.440;2022-08-01T09:43:31;93845.00;;;32.20
41593;BMP180;28026;48.562;14.440;2022-08-01T09:46:10;93827.00;;;32.10
41593;BMP180;28026;48.562;14.440;2022-08-01T09:49:02;93830.00;;;32.10
41593;BMP180;28026;48.562;14.440;2022-08-01T09:51:39;93838.00;;;32.20
41593;BMP180;28026;48.562;14.440;2022-08-01T09:54:10;93820.00;;;32.20
41593;BMP180;28026;48.562;14.440;2022-08-01T09:56:42;93843.00;;;32.10
41593;BMP180;28026;48.562;14.440;2022-08-01T09:59:13;93838.00;;;32.00
41593;BMP180;28026;48.562;14.440;2022-08-01T10:01:48;93852.00;;;31.90
41593;BMP180;28026;48.562;14.440;2022-08-01T10:04:21;93851.00;;;32.00
41593;BMP180;28026;48.562;14.440;2022-08-01T10:07:07;93857.00;;;32.00
41593;BMP180;28026;48.562;14.440;2022-08-01T10:09:38;93859.00;;;31.90
41593;BMP180;28026;48.562;14.440;2022-08-01T10:12:10;93861.00;;;31.90
41593;BMP180;28026;48.562;14.440;2022-08-01T10:14:48;93871.00;;;31.90
41593;BMP180;28026;48.562;14.440;2022-08-01T10:17:25;93865.00;;;31.90
41593;BMP180;28026;48.562;14.440;2022-08-01T10:19:57;93859.00;;;31.80
41593;BMP180;28026;48.562;14.440;2022-08-01T10:22:31;93856.00;;;31.70
41593;BMP180;28026;48.562;14.440;2022-08-01T10:25:05;93844.00;;;31.80
41593;BMP180;28026;48.562;14.440;2022-08-01T10:27:39;93846.00;;;32.00
41593;BMP180;28026;48.562;14.440;2022-08-01T10:30:15;93847.00;;;32.20
41593;BMP180;28026;48.562;14.440;2022-08-01T10:32:47;93841.00;;;32.30
41593;BMP180;28026;48.562;14.440;2022-08-01T10:35:19;93858.00;;;32.40
41593;BMP180;28026;48.562;14.440;2022-08-01T10:37:50;93861.00;;;32.30
41593;BMP180;28026;48.562;14.440;2022-08-01T10:40:27;93861.00;;;32.20
41593;BMP180;28026;48.562;14.440;2022-08-01T10:42:58;93867.00;;;32.10
41593;BMP180;28026;48.562;14.440;2022-08-01T10:45:30;93866.00;;;32.10
41593;BMP180;28026;48.562;14.440;2022-08-01T10:48:16;93886.00;;;32.00
41593;BMP180;28026;48.562;14.440;2022-08-01T10:50:58;93886.00;;;31.90
41593;BMP180;28026;48.562;14.440;2022-08-01T10:53:32;93888.00;;;31.70
41593;BMP180;28026;48.562;14.440;2022-08-01T10:56:04;93886.00;;;31.50
41593;BMP180;28026;48.562;14.440;2022-08-01T10:58:41;93884.00;;;31.40
41593;BMP180;28026;48.562;14.440;2022-08-01T11:01:26;93880.00;;;31.40
41593;BMP180;28026;48.562;14.440;2022-08-01T11:04:09;93866.00;;;31.50
41593;BMP180;28026;48.562;14.440;2022-08-01T11:07:02;93871.00;;;32.00
41593;BMP180;28026;48.562;14.440;2022-08-01T11:09:45;93867.00;;;32.40
41593;BMP180;28026;48.562;14.440;2022-08-01T11:12:18;93874.00;;;32.40
41593;BMP180;28026;48.562;14.440;2022-08-01T11:17:46;93877.00;;;32.40
41593;BMP180;28026;48.562;14.440;2022-08-01T11:20:34;93875.00;;;32.40
41593;BMP180;28026;48.562;14.440;2022-08-01T11:30:49;93868.00;;;32.70
41593;BMP180;28026;48.562;14.440;2022-08-01T11:33:48;93872.00;;;32.90
41593;BMP180;28026;48.562;14.440;2022-08-01T11:36:19;93871.00;;;33.10
41593;BMP180;28026;48.562;14.440;2022-08-01T11:41:33;93861.00;;;33.10
41593;BMP180;28026;48.562;14.440;2022-08-01T11:44:19;93869.00;;;32.90
41593;BMP180;28026;48.562;14.440;2022-08-01T11:47:02;93875.00;;;32.70
41593;BMP180;28026;48.562;14.440;2022-08-01T11:55:08;93878.00;;;31.90
41593;BMP180;28026;48.562;14.440;2022-08-01T11:57:40;93879.00;;;31.90
41593;BMP180;28026;48.562;14.440;2022-08-01T12:00:18;93882.00;;;31.80
41593;BMP180;28026;48.562;14.440;2022-08-01T12:02:59;93869.00;;;31.80
41593;BMP180;28026;48.562;14.440;2022-08-01T12:05:35;93875.00;;;31.70
41593;BMP180;28026;48.562;14.440;2022-08-01T12:08:09;93860.00;;;31.80
41593;BMP180;28026;48.562;14.440;2022-08-01T12:10:40;93868.00;;;32.10
41593;BMP180;28026;48.562;14.440;2022-08-01T12:13:12;93860.00;;;32.40
41593;BMP180;28026;48.562;14.440;2022-08-01T12:15:43;93851.00;;;32.60
41593;BMP180;28026;48.562;14.440;2022-08-01T12:18:16;93854.00;;;32.70
41593;BMP180;28026;48.562;14.440;2022-08-01T12:20:47;93853.00;;;32.80
41593;BMP180;28026;48.562;14.440;2022-08-01T12:23:18;93852.00;;;33.00
41593;BMP180;28026;48.562;14.440;2022-08-01T12:25:53;93847.00;;;33.20
41593;BMP180;28026;48.562;14.440;2022-08-01T12:28:24;93848.00;;;33.10
41593;BMP180;28026;48.562;14.440;2022-08-01T12:30:55;93851.00;;;33.00
41593;BMP180;28026;48.562;14.440;2022-08-01T12:33:26;93854.00;;;32.90
41593;BMP180;28026;48.562;14.440;2022-08-01T12:35:57;93856.00;;;32.90
41593;BMP180;28026;48.562;14.440;2022-08-01T12:38:30;93857.00;;;32.90
41593;BMP180;28026;48.562;14.440;2022-08-01T12:41:03;93851.00;;;32.90
41593;BMP180;28026;48.562;14.440;2022-08-01T12:43:34;93852.00;;;32.90
41593;BMP180;28026;48.562;14.440;2022-08-01T12:46:06;93846.00;;;33.00
41593;BMP180;28026;48.562;14.440;2022-08-01T12:48:39;93856.00;;;32.90
41593;BMP180;28026;48.562;14.440;2022-08-01T12:51:10;93847.00;;;32.70
41593;BMP180;28026;48.562;14.440;2022-08-01T12:53:42;93853.00;;;32.50
41593;BMP180;28026;48.562;14.440;2022-08-01T12:56:14;93850.00;;;32.40
41593;BMP180;28026;48.562;14.440;2022-08-01T12:58:45;93848.00;;;32.20
41593;BMP180;28026;48.562;14.440;2022-08-01T13:01:25;93855.00;;;32.10
41593;BMP180;28026;48.562;14.440;2022-08-01T13:04:02;93861.00;;;32.10
41593;BMP180;28026;48.562;14.440;2022-08-01T13:06:37;93865.00;;;32.00
41593;BMP180;28026;48.562;14.440;2022-08-01T13:09:09;93863.00;;;32.00
41593;BMP180;28026;48.562;14.440;2022-08-01T13:11:42;93859.00;;;32.00
41593;BMP180;28026;48.562;14.440;2022-08-01T13:14:29;93848.00;;;32.00
41593;BMP180;28026;48.562;14.440;2022-08-01T13:17:00;93858.00;;;32.10
41593;BMP180;28026;48.562;14.440;2022-08-01T13:19:45;93845.00;;;32.20
41593;BMP180;28026;48.562;14.440;2022-08-01T13:22:17;93841.00;;;32.40
41593;BMP180;28026;48.562;14.440;2022-08-01T13:24:48;93848.00;;;32.70
41593;BMP180;28026;48.562;14.440;2022-08-01T13:27:22;93836.00;;;32.90
41593;BMP180;28026;48.562;14.440;2022-08-01T13:30:15;93845.00;;;33.10
41593;BMP180;28026;48.562;14.440;2022-08-01T13:33:08;93832.00;;;33.20
41593;BMP180;28026;48.562;14.440;2022-08-01T13:35:39;93837.00;;;33.20
41593;BMP180;28026;48.562;14.440;2022-08-01T13:38:10;93845.00;;;33.30
41593;BMP180;28026;48.562;14.440;2022-08-01T13:40:41;93840.00;;;33.30
41593;BMP180;28026;48.562;14.440;2022-08-01T13:43:12;93845.00;;;33.50
41593;BMP180;28026;48.562;14.440;2022-08-01T13:45:43;93860.00;;;33.70
41593;BMP180;28026;48.562;14.440;2022-08-01T13:48:14;93852.00;;;33.90
41593;BMP180;28026;48.562;14.440;2022-08-01T13:50:45;93857.00;;;34.10
41593;BMP180;28026;48.562;14.440;2022-08-01T13:53:16;93851.00;;;34.40
41593;BMP180;28026;48.562;14.440;2022-08-01T13:55:48;93849.00;;;34.70
41593;BMP180;28026;48.562;14.440;2022-08-01T13:58:19;93837.00;;;34.90
41593;BMP180;28026;48.562;14.440;2022-08-01T14:00:50;93850.00;;;35.00
41593;BMP180;28026;48.562;14.440;2022-08-01T14:03:22;93848.00;;;35.10
41593;BMP180;28026;48.562;14.440;2022-08-01T14:05:53;93852.00;;;34.90
41593;BMP180;28026;48.562;14.440;2022-08-01T14:08:24;93847.00;;;34.50
41593;BMP180;28026;48.562;14.440;2022-08-01T14:10:55;93835.00;;;34.40
41593;BMP180;28026;48.562;14.440;2022-08-01T14:13:29;93841.00;;;34.40
41593;BMP180;28026;48.562;14.440;2022-08-01T14:16:00;93846.00;;;34.20
41593;BMP180;28026;48.562;14.440;2022-08-01T14:18:32;93853.00;;;34.10
41593;BMP180;28026;48.562;14.440;2022-08-01T14:21:03;93845.00;;;34.20
41593;BMP180;28026;48.562;14.440;2022-08-01T14:23:34;93852.00;;;34.50
41593;BMP180;28026;48.562;14.440;2022-08-01T14:26:05;93858.00;;;34.60
41593;BMP180;28026;48.562;14.440;2022-08-01T14:28:37;93850.00;;;34.50
41593;BMP180;28026;48.562;14.440;2022-08-01T14:31:09;93854.00;;;34.30
41593;BMP180;28026;48.562;14.440;2022-08-01T14:33:40;93855.00;;;34.10
41593;BMP180;28026;48.562;14.440;2022-08-01T14:36:11;93858.00;;;33.90
41593;BMP180;28026;48.562;14.440;2022-08-01T14:38:42;93858.00;;;33.70
41593;BMP180;28026;48.562;14.440;2022-08-01T14:41:14;93853.00;;;33.50
41593;BMP180;28026;48.562;14.440;2022-08-01T14:43:45;93860.00;;;33.30
41593;BMP180;28026;48.562;14.440;2022-08-01T14:46:16;93857.00;;;33.00
41593;BMP180;28026;48.562;14.440;2022-08-01T14:48:47;93852.00;;;32.80
41593;BMP180;28026;48.562;14.440;2022-08-01T14:51:18;93855.00;;;32.60
41593;BMP180;28026;48.562;14.440;2022-08-01T14:53:49;93862.00;;;32.50
41593;BMP180;28026;48.562;14.440;2022-08-01T14:56:20;93866.00;;;32.40
41593;BMP180;28026;48.562;14.440;2022-08-01T14:58:51;93866.00;;;32.40
41593;BMP180;28026;48.562;14.440;2022-08-01T15:01:22;93858.00;;;32.30
41593;BMP180;28026;48.562;14.440;2022-08-01T15:03:53;93850.00;;;32.70